createdAt,value
2017-12-17T00:01:19.045Z,73.95
2017-12-17T00:03:48.068Z,74.33
2017-12-17T00:06:16.718Z,75.05
2017-12-17T00:08:47.335Z,74.93
2017-12-17T00:11:16.039Z,74.54
2017-12-17T00:13:45.064Z,73.54
2017-12-17T00:16:14.718Z,74.12
2017-12-17T00:18:43.469Z,74.12
2017-12-17T00:21:12.464Z,74.04
2017-12-17T00:23:42.482Z,73.60
2017-12-17T00:26:11.846Z,73.78
2017-12-17T00:28:40.468Z,73.88
2017-12-17T00:31:10.280Z,73.49
2017-12-17T00:33:38.863Z,72.88
2017-12-17T00:36:07.856Z,72.53
2017-12-17T00:38:37.841Z,71.45
2017-12-17T00:41:06.867Z,72.31
2017-12-17T00:43:35.802Z,71.75
2017-12-17T00:46:05.714Z,71.75
2017-12-17T00:48:34.353Z,70.24
2017-12-17T00:51:03.357Z,69.39
2017-12-17T00:53:32.861Z,69.25
2017-12-17T00:56:01.879Z,69.26
2017-12-17T00:58:30.739Z,69.56
2017-12-17T01:00:59.946Z,69.70
2017-12-17T01:03:28.670Z,70.20
2017-12-17T01:05:57.628Z,69.71
2017-12-17T01:08:27.121Z,69.43
2017-12-17T01:10:55.816Z,69.47
2017-12-17T01:13:24.403Z,69.53
2017-12-17T01:15:54.008Z,70.22
2017-12-17T01:18:22.737Z,70.82
2017-12-17T01:20:51.588Z,70.54
2017-12-17T01:23:21.227Z,70.71
2017-12-17T01:25:49.982Z,70.69
2017-12-17T01:28:18.671Z,70.93
2017-12-17T01:30:47.289Z,71.35
2017-12-17T01:33:15.922Z,71.30
2017-12-17T01:35:44.626Z,71.35
2017-12-17T01:38:14.544Z,71.31
2017-12-17T01:40:43.387Z,71.43
2017-12-17T01:43:11.962Z,71.46
2017-12-17T01:45:40.706Z,71.64
2017-12-17T01:48:09.396Z,71.35
2017-12-17T01:50:38.387Z,71.97
2017-12-17T01:53:08.940Z,71.87
2017-12-17T01:55:37.905Z,72.12
2017-12-17T01:58:06.922Z,71.51
2017-12-17T02:00:35.699Z,71.18
2017-12-17T02:03:05.539Z,70.94
2017-12-17T02:05:34.658Z,70.62
2017-12-17T02:08:03.780Z,70.08
2017-12-17T02:10:32.791Z,71.10
2017-12-17T02:13:01.779Z,71.01
2017-12-17T02:15:31.739Z,71.58
2017-12-17T02:18:00.799Z,71.77
2017-12-17T02:20:29.901Z,72.30
2017-12-17T02:22:58.665Z,73.41
2017-12-17T02:25:27.679Z,74.67
2017-12-17T02:27:56.464Z,75.94
2017-12-17T02:30:26.009Z,77.11
2017-12-17T02:32:55.167Z,78.38
2017-12-17T02:35:23.803Z,79.32
2017-12-17T02:37:59.712Z,79.45
2017-12-17T02:40:28.505Z,80.64
2017-12-17T02:42:57.584Z,80.76
2017-12-17T02:47:56.508Z,82.04
2017-12-17T02:50:26.876Z,82.56
2017-12-17T02:52:56.637Z,82.35
2017-12-17T02:55:25.327Z,82.64
2017-12-17T02:57:54.020Z,83.38
2017-12-17T03:00:27.719Z,83.89
2017-12-17T03:02:56.544Z,83.56
2017-12-17T03:05:25.265Z,83.27
2017-12-17T03:07:54.699Z,83.31
2017-12-17T03:10:23.485Z,83.39
2017-12-17T03:12:52.510Z,83.17
2017-12-17T03:15:22.401Z,82.46
2017-12-17T03:17:51.319Z,82.30
2017-12-17T03:20:19.941Z,82.44
2017-12-17T03:22:48.763Z,82.39
2017-12-17T03:25:17.472Z,82.45
2017-12-17T03:27:46.297Z,82.53
2017-12-17T03:30:15.289Z,82.31
2017-12-17T03:32:44.275Z,82.44
2017-12-17T03:35:13.316Z,82.21
2017-12-17T03:37:42.036Z,83.08
2017-12-17T03:40:10.821Z,82.93
2017-12-17T03:42:39.506Z,82.66
2017-12-17T03:45:08.705Z,82.71
2017-12-17T03:47:37.531Z,82.91
2017-12-17T03:50:06.417Z,82.93
2017-12-17T03:52:35.350Z,82.10
2017-12-17T03:55:04.262Z,82.03
2017-12-17T03:57:33.201Z,81.37
2017-12-17T04:00:02.209Z,81.44
2017-12-17T04:02:31.390Z,80.63
2017-12-17T04:05:00.223Z,80.58
2017-12-17T04:07:29.329Z,80.97
2017-12-17T04:09:58.233Z,81.07
2017-12-17T04:12:26.999Z,81.41
2017-12-17T04:17:30.183Z,80.07
2017-12-17T04:19:58.920Z,80.18
2017-12-17T04:22:28.120Z,80.11
2017-12-17T04:24:56.907Z,80.02
2017-12-17T04:27:25.588Z,80.33
2017-12-17T04:29:55.406Z,80.80
2017-12-17T04:32:24.637Z,81.15
2017-12-17T04:34:53.324Z,81.90
2017-12-17T04:37:21.974Z,82.94
2017-12-17T04:39:51.642Z,83.07
2017-12-17T04:42:20.316Z,83.67
2017-12-17T04:44:49.058Z,84.34
2017-12-17T04:47:18.051Z,84.39
2017-12-17T04:49:47.096Z,85.09
2017-12-17T04:52:16.067Z,85.05
2017-12-17T04:54:44.931Z,86.24
2017-12-17T04:57:14.544Z,86.05
2017-12-17T05:02:17.745Z,85.88
2017-12-17T05:04:46.675Z,85.49
2017-12-17T05:07:17.165Z,85.49
2017-12-17T05:09:45.835Z,85.82
2017-12-17T05:12:14.540Z,86.37
2017-12-17T05:14:43.636Z,86.55
2017-12-17T05:17:12.635Z,87.57
2017-12-17T05:19:41.457Z,86.90
2017-12-17T05:22:10.460Z,87.08
2017-12-17T05:24:39.104Z,87.32
2017-12-17T05:27:07.788Z,87.60
2017-12-17T05:29:36.502Z,87.76
2017-12-17T05:32:05.243Z,88.03
2017-12-17T05:34:33.889Z,87.82
2017-12-17T05:37:06.318Z,88.06
2017-12-17T05:39:35.008Z,88.14
2017-12-17T05:42:03.726Z,87.78
2017-12-17T05:44:32.724Z,87.45
2017-12-17T05:47:01.682Z,87.83
2017-12-17T05:49:30.775Z,87.98
2017-12-17T05:52:02.226Z,88.17
2017-12-17T05:54:31.292Z,88.27
2017-12-17T05:57:01.168Z,87.90
2017-12-17T05:59:32.790Z,87.81
2017-12-17T06:02:01.981Z,87.37
2017-12-17T06:04:30.979Z,87.30
2017-12-17T06:07:01.198Z,87.06
2017-12-17T06:09:30.442Z,86.87
2017-12-17T06:11:59.457Z,86.90
2017-12-17T06:14:34.121Z,86.66
2017-12-17T06:17:02.876Z,87.22
2017-12-17T06:19:32.814Z,87.03
2017-12-17T06:22:03.561Z,87.04
2017-12-17T06:24:33.750Z,86.86
2017-12-17T06:27:03.496Z,86.32
2017-12-17T06:29:33.719Z,86.60
2017-12-17T06:32:03.702Z,86.50
2017-12-17T06:34:34.463Z,86.84
2017-12-17T06:37:04.568Z,86.43
2017-12-17T06:39:33.542Z,85.90
2017-12-17T06:42:02.603Z,85.96
2017-12-17T06:44:31.582Z,86.07
2017-12-17T06:47:00.662Z,85.95
2017-12-17T06:49:29.578Z,85.67
2017-12-17T06:51:59.860Z,85.89
2017-12-17T06:54:31.929Z,85.87
2017-12-17T06:57:00.901Z,85.63
2017-12-17T06:59:31.596Z,85.40
2017-12-17T07:02:00.901Z,85.08
2017-12-17T07:04:29.984Z,85.33
2017-12-17T07:06:58.847Z,85.09
2017-12-17T07:09:29.658Z,85.28
2017-12-17T07:11:58.556Z,85.64
2017-12-17T07:14:27.833Z,85.41
2017-12-17T07:16:57.910Z,85.67
2017-12-17T07:19:26.971Z,85.73
2017-12-17T07:21:56.946Z,85.87
2017-12-17T07:24:26.451Z,85.92
2017-12-17T07:26:55.670Z,85.76
2017-12-17T07:29:25.468Z,85.57
2017-12-17T07:31:54.391Z,85.59
2017-12-17T07:34:23.363Z,85.47
2017-12-17T07:36:52.351Z,85.41
2017-12-17T07:39:22.675Z,85.57
2017-12-17T07:41:51.454Z,85.29
2017-12-17T07:44:21.398Z,85.15
2017-12-17T07:46:50.323Z,85.38
2017-12-17T07:49:19.192Z,85.03
2017-12-17T07:51:48.173Z,84.66
2017-12-17T07:54:17.139Z,84.86
2017-12-17T07:56:46.060Z,85.03
2017-12-17T07:59:15.797Z,84.64
2017-12-17T08:01:44.837Z,84.53
2017-12-17T08:04:13.831Z,84.81
2017-12-17T08:06:42.631Z,84.62
2017-12-17T08:09:12.331Z,84.89
2017-12-17T08:11:41.542Z,85.07
2017-12-17T08:14:10.566Z,85.96
2017-12-17T08:19:13.932Z,87.17
2017-12-17T08:21:44.162Z,87.76
2017-12-17T08:24:13.334Z,88.39
2017-12-17T08:26:43.211Z,88.79
2017-12-17T08:29:11.967Z,89.27
2017-12-17T08:31:43.988Z,89.22
2017-12-17T08:34:12.955Z,89.03
2017-12-17T08:36:42.000Z,88.54
2017-12-17T08:39:11.519Z,88.66
2017-12-17T08:41:40.362Z,88.68
2017-12-17T08:44:09.298Z,88.96
2017-12-17T08:46:38.804Z,88.77
2017-12-17T08:49:10.909Z,89.30
2017-12-17T08:51:40.577Z,89.51
2017-12-17T08:54:09.492Z,89.85
2017-12-17T08:56:38.786Z,89.50
2017-12-17T08:59:08.693Z,89.73
2017-12-17T09:01:38.951Z,89.67
2017-12-17T09:04:07.811Z,90.07
2017-12-17T09:06:38.602Z,89.84
2017-12-17T09:09:07.942Z,88.71
2017-12-17T09:11:36.682Z,90.21
2017-12-17T09:14:08.703Z,90.15
2017-12-17T09:16:38.347Z,90.37
2017-12-17T09:19:08.739Z,89.73
2017-12-17T09:21:37.876Z,90.37
2017-12-17T09:24:07.297Z,90.77
2017-12-17T09:26:36.160Z,90.85
2017-12-17T09:29:07.010Z,90.46
2017-12-17T09:31:36.292Z,90.03
2017-12-17T09:34:05.319Z,90.44
2017-12-17T09:36:39.775Z,89.89
2017-12-17T09:39:09.794Z,90.95
2017-12-17T09:41:39.124Z,90.49
2017-12-17T09:46:42.803Z,90.66
2017-12-17T09:49:11.990Z,90.36
2017-12-17T09:51:43.073Z,90.45
2017-12-17T09:54:12.892Z,90.63
2017-12-17T09:56:42.525Z,90.48
2017-12-17T09:59:11.871Z,90.59
2017-12-17T10:01:41.103Z,90.43
2017-12-17T10:04:09.868Z,89.63
2017-12-17T10:06:38.982Z,90.29
2017-12-17T10:09:07.993Z,90.01
2017-12-17T10:11:36.942Z,90.06
2017-12-17T10:14:09.112Z,90.39
2017-12-17T10:16:38.576Z,90.67
2017-12-17T10:19:08.108Z,91.05
2017-12-17T10:21:38.300Z,90.00
2017-12-17T10:24:07.622Z,89.84
2017-12-17T10:26:37.637Z,89.77
2017-12-17T10:29:07.257Z,89.84
2017-12-17T10:31:36.541Z,90.07
2017-12-17T10:34:05.491Z,90.08
2017-12-17T10:36:35.048Z,90.46
2017-12-17T10:39:04.236Z,89.87
2017-12-17T10:41:33.331Z,90.13
2017-12-17T10:44:02.432Z,90.18
2017-12-17T10:46:31.625Z,89.63
2017-12-17T10:49:01.955Z,89.41
2017-12-17T10:51:33.021Z,89.23
2017-12-17T10:54:02.517Z,89.98
2017-12-17T10:56:32.477Z,89.72
2017-12-17T10:59:01.890Z,90.42
2017-12-17T11:01:31.010Z,90.18
2017-12-17T11:04:00.903Z,89.75
2017-12-17T11:06:30.347Z,90.25
2017-12-17T11:08:59.510Z,90.49
2017-12-17T11:11:28.317Z,90.58
2017-12-17T11:13:58.786Z,90.76
2017-12-17T11:16:28.087Z,90.64
2017-12-17T11:18:58.711Z,91.21
2017-12-17T11:21:27.481Z,90.94
2017-12-17T11:23:56.475Z,91.21
2017-12-17T11:26:25.463Z,91.74
2017-12-17T11:31:30.802Z,91.62
2017-12-17T11:33:59.918Z,91.79
2017-12-17T11:36:30.317Z,91.91
2017-12-17T11:38:59.512Z,92.13
2017-12-17T11:41:28.951Z,91.84
2017-12-17T11:43:58.907Z,91.63
2017-12-17T11:46:27.559Z,91.38
2017-12-17T11:48:56.441Z,91.82
2017-12-17T11:51:26.149Z,91.73
2017-12-17T11:53:55.357Z,92.00
2017-12-17T11:56:26.034Z,91.98
2017-12-17T11:58:54.796Z,91.62
2017-12-17T12:01:24.637Z,91.54
2017-12-17T12:03:53.367Z,91.07
2017-12-17T12:06:22.777Z,91.16
2017-12-17T12:08:52.811Z,91.10
2017-12-17T12:11:21.993Z,91.78
2017-12-17T12:13:51.706Z,91.34
2017-12-17T12:16:20.478Z,91.15
2017-12-17T12:18:49.443Z,90.78
2017-12-17T12:21:18.637Z,91.43
2017-12-17T12:23:48.410Z,90.73
2017-12-17T12:26:17.411Z,90.76
2017-12-17T12:28:46.478Z,90.89
2017-12-17T12:31:16.009Z,91.19
2017-12-17T12:33:44.977Z,91.03
2017-12-17T12:36:15.284Z,90.70
2017-12-17T12:38:44.105Z,90.36
2017-12-17T12:41:12.906Z,90.58
2017-12-17T12:43:43.041Z,90.28
2017-12-17T12:46:12.235Z,90.19
2017-12-17T12:48:45.296Z,90.24
2017-12-17T12:51:14.522Z,90.12
2017-12-17T12:53:43.274Z,90.16
2017-12-17T12:56:12.689Z,89.99
2017-12-17T12:58:41.880Z,90.10
2017-12-17T13:01:11.093Z,89.94
2017-12-17T13:03:40.724Z,89.82
2017-12-17T13:06:10.988Z,90.32
2017-12-17T13:08:40.745Z,89.71
2017-12-17T13:11:09.735Z,89.79
2017-12-17T13:13:38.931Z,89.85
2017-12-17T13:16:08.325Z,89.39
2017-12-17T13:18:40.062Z,89.92
2017-12-17T13:21:09.095Z,90.66
2017-12-17T13:23:38.193Z,90.08
2017-12-17T13:26:08.270Z,90.16
2017-12-17T13:28:37.296Z,89.91
2017-12-17T13:31:07.083Z,89.72
2017-12-17T13:33:37.752Z,90.09
2017-12-17T13:36:07.151Z,90.15
2017-12-17T13:38:36.434Z,90.25
2017-12-17T13:41:05.508Z,89.79
2017-12-17T13:43:35.372Z,90.45
2017-12-17T13:46:04.569Z,90.62
2017-12-17T13:48:34.745Z,90.58
2017-12-17T13:51:04.146Z,90.57
2017-12-17T13:53:34.206Z,90.12
2017-12-17T13:58:38.282Z,90.21
2017-12-17T14:01:09.691Z,90.15
2017-12-17T14:03:39.712Z,89.89
2017-12-17T14:06:09.703Z,90.23
2017-12-17T14:08:39.147Z,90.12
2017-12-17T14:11:09.494Z,90.25
2017-12-17T14:13:38.638Z,89.92
2017-12-17T14:16:07.822Z,89.54
2017-12-17T14:18:37.750Z,89.65
2017-12-17T14:21:06.544Z,89.55
2017-12-17T14:23:36.274Z,89.78
2017-12-17T14:26:06.007Z,90.04
2017-12-17T14:28:35.126Z,90.23
2017-12-17T14:31:04.323Z,90.10
2017-12-17T14:33:35.841Z,90.25
2017-12-17T14:36:06.336Z,90.11
2017-12-17T14:41:39.832Z,90.13
2017-12-17T14:44:11.323Z,89.97
2017-12-17T14:46:41.198Z,89.84
2017-12-17T14:49:11.924Z,89.55
2017-12-17T14:51:42.830Z,89.91
2017-12-17T14:54:12.739Z,89.71
2017-12-17T14:56:42.826Z,89.54
2017-12-17T14:59:13.809Z,89.57
2017-12-17T15:01:44.219Z,89.70
2017-12-17T15:04:14.358Z,89.74
2017-12-17T15:06:43.781Z,89.96
2017-12-17T15:09:14.611Z,89.89
2017-12-17T15:11:44.687Z,89.97
2017-12-17T15:14:14.447Z,89.77
2017-12-17T15:16:44.586Z,90.03
2017-12-17T15:19:15.381Z,89.98
2017-12-17T15:21:45.329Z,90.21
2017-12-17T15:24:14.640Z,90.66
2017-12-17T15:26:44.819Z,90.78
2017-12-17T15:29:14.222Z,90.44
2017-12-17T15:31:44.556Z,90.72
2017-12-17T15:34:13.757Z,90.52
2017-12-17T15:36:44.011Z,90.25
2017-12-17T15:39:13.759Z,90.18
2017-12-17T15:41:44.878Z,89.98
2017-12-17T15:44:14.009Z,89.93
2017-12-17T15:46:43.312Z,90.39
2017-12-17T15:49:12.368Z,90.41
2017-12-17T15:51:41.688Z,90.36
2017-12-17T15:54:10.880Z,90.12
2017-12-17T15:59:17.744Z,91.32
2017-12-17T16:01:47.055Z,91.09
2017-12-17T16:04:16.502Z,90.60
2017-12-17T16:06:45.806Z,90.31
2017-12-17T16:09:15.338Z,90.25
2017-12-17T16:11:46.627Z,90.32
2017-12-17T16:14:17.044Z,90.62
2017-12-17T16:16:46.563Z,90.93
2017-12-17T16:19:16.722Z,90.35
2017-12-17T16:21:46.135Z,90.20
2017-12-17T16:24:15.601Z,90.37
2017-12-17T16:26:45.268Z,90.15
2017-12-17T16:29:15.843Z,89.37
2017-12-17T16:31:44.957Z,89.45
2017-12-17T16:34:20.483Z,89.34
2017-12-17T16:36:49.552Z,89.18
2017-12-17T16:39:19.712Z,88.90
2017-12-17T16:41:51.111Z,88.59
2017-12-17T16:44:20.204Z,87.68
2017-12-17T16:46:50.241Z,87.87
2017-12-17T16:49:21.105Z,87.42
2017-12-17T16:51:50.214Z,87.61
2017-12-17T16:54:19.927Z,87.38
2017-12-17T16:59:30.705Z,87.28
2017-12-17T17:02:00.073Z,87.06
2017-12-17T17:04:29.449Z,87.34
2017-12-17T17:06:58.936Z,88.51
2017-12-17T17:09:30.244Z,88.41
2017-12-17T17:12:00.166Z,88.59
2017-12-17T17:14:29.548Z,88.45
2017-12-17T17:17:00.805Z,88.29
2017-12-17T17:19:30.370Z,88.50
2017-12-17T17:22:02.518Z,88.75
2017-12-17T17:24:33.464Z,88.17
2017-12-17T17:27:03.122Z,88.73
2017-12-17T17:29:32.861Z,87.90
2017-12-17T17:32:02.181Z,87.61
2017-12-17T17:34:31.651Z,87.80
2017-12-17T17:37:02.440Z,87.46
2017-12-17T17:39:31.787Z,87.42
2017-12-17T17:42:01.347Z,87.09
2017-12-17T17:44:31.805Z,87.58
2017-12-17T17:47:01.266Z,87.67
2017-12-17T17:49:32.552Z,88.28
2017-12-17T17:52:02.134Z,87.97
2017-12-17T17:54:31.425Z,87.99
2017-12-17T17:57:03.061Z,88.13
2017-12-17T17:59:32.484Z,87.68
2017-12-17T18:02:02.556Z,87.74
2017-12-17T18:04:33.066Z,87.83
2017-12-17T18:07:03.131Z,87.57
2017-12-17T18:09:34.516Z,87.67
2017-12-17T18:12:03.726Z,87.00
2017-12-17T18:14:34.265Z,87.55
2017-12-17T18:17:03.591Z,87.32
2017-12-17T18:19:33.163Z,87.74
2017-12-17T18:22:03.523Z,87.31
2017-12-17T18:24:34.793Z,88.05
2017-12-17T18:27:04.290Z,87.94
2017-12-17T18:29:33.733Z,87.87
2017-12-17T18:32:04.134Z,88.36
2017-12-17T18:34:33.309Z,87.98
2017-12-17T18:37:02.768Z,88.24
2017-12-17T18:39:34.817Z,89.03
2017-12-17T18:42:04.428Z,89.04
2017-12-17T18:44:34.564Z,88.59
2017-12-17T18:47:07.797Z,88.82
2017-12-17T18:49:38.350Z,88.58
2017-12-17T18:52:08.913Z,88.66
2017-12-17T18:54:38.332Z,88.44
2017-12-17T18:57:11.224Z,88.06
2017-12-17T18:59:40.338Z,88.53
2017-12-17T19:02:09.986Z,88.52
2017-12-17T19:04:40.770Z,88.84
2017-12-17T19:07:10.175Z,89.17
2017-12-17T19:09:39.900Z,89.50
2017-12-17T19:12:10.486Z,89.40
2017-12-17T19:14:40.514Z,89.06
2017-12-17T19:17:11.142Z,89.30
2017-12-17T19:19:42.867Z,89.72
2017-12-17T19:22:12.143Z,89.95
2017-12-17T19:24:41.370Z,89.67
2017-12-17T19:27:11.055Z,89.71
2017-12-17T19:29:40.505Z,89.99
2017-12-17T19:32:09.599Z,89.95
2017-12-17T19:34:43.343Z,90.11
2017-12-17T19:37:13.883Z,90.18
2017-12-17T19:39:48.828Z,89.61
2017-12-17T19:42:18.975Z,89.52
2017-12-17T19:44:48.512Z,89.21
2017-12-17T19:47:25.544Z,89.87
2017-12-17T19:49:55.700Z,89.62
2017-12-17T19:52:25.010Z,89.21
2017-12-17T19:54:55.255Z,89.85
2017-12-17T19:57:27.154Z,89.79
2017-12-17T19:59:57.771Z,89.52
2017-12-17T20:02:27.171Z,89.18
2017-12-17T20:04:57.911Z,89.83
2017-12-17T20:07:29.042Z,89.89
2017-12-17T20:09:58.495Z,90.47
2017-12-17T20:12:28.970Z,90.22
2017-12-17T20:14:58.523Z,90.20
2017-12-17T20:17:28.326Z,90.04
2017-12-17T20:19:57.851Z,90.31
2017-12-17T20:22:28.437Z,90.46
2017-12-17T20:24:58.371Z,89.91
2017-12-17T20:27:28.869Z,89.85
2017-12-17T20:29:58.480Z,89.95
2017-12-17T20:32:28.877Z,89.47
2017-12-17T20:34:58.518Z,89.92
2017-12-17T20:37:28.303Z,90.11
2017-12-17T20:39:58.495Z,89.89
2017-12-17T20:42:28.431Z,89.71
2017-12-17T20:44:57.971Z,89.22
2017-12-17T20:47:28.284Z,89.05
2017-12-17T20:49:58.479Z,89.22
2017-12-17T20:52:28.049Z,88.91
2017-12-17T20:54:58.865Z,89.24
2017-12-17T20:57:30.672Z,89.13
2017-12-17T21:00:01.851Z,89.30
2017-12-17T21:02:31.284Z,88.36
2017-12-17T21:05:00.983Z,88.25
2017-12-17T21:07:30.324Z,88.63
2017-12-17T21:09:59.747Z,88.65
2017-12-17T21:12:29.657Z,88.56
2017-12-17T21:14:59.643Z,88.15
2017-12-17T21:17:30.085Z,88.19
2017-12-17T21:19:59.771Z,88.27
2017-12-17T21:22:30.681Z,88.19
2017-12-17T21:25:01.449Z,88.48
2017-12-17T21:27:36.168Z,87.99
2017-12-17T21:30:06.757Z,87.92
2017-12-17T21:32:38.985Z,87.82
2017-12-17T21:35:09.043Z,88.12
2017-12-17T21:37:40.145Z,87.83
2017-12-17T21:40:09.227Z,88.27
2017-12-17T21:42:38.442Z,87.97
2017-12-17T21:45:08.245Z,87.64
2017-12-17T21:47:37.144Z,87.29
2017-12-17T21:50:06.053Z,88.03
2017-12-17T21:52:34.930Z,87.98
2017-12-17T21:55:04.038Z,87.85
2017-12-17T21:57:33.208Z,88.46
2017-12-17T22:00:05.658Z,88.22
2017-12-17T22:02:34.975Z,88.09
2017-12-17T22:05:04.207Z,88.07
2017-12-17T22:07:33.401Z,87.84
2017-12-17T22:10:02.455Z,88.19
2017-12-17T22:12:31.589Z,87.53
2017-12-17T22:15:02.359Z,87.54
2017-12-17T22:17:31.638Z,87.23
2017-12-17T22:20:00.752Z,87.03
2017-12-17T22:22:29.895Z,86.78
2017-12-17T22:24:58.705Z,86.41
2017-12-17T22:27:28.306Z,86.01
2017-12-17T22:30:01.795Z,86.15
2017-12-17T22:32:31.079Z,85.42
2017-12-17T22:35:02.605Z,85.33
2017-12-17T22:37:31.667Z,84.98
2017-12-17T22:40:01.968Z,84.99
2017-12-17T22:42:31.807Z,84.74
2017-12-17T22:45:01.413Z,84.75
2017-12-17T22:47:30.625Z,85.01
2017-12-17T22:50:00.084Z,84.76
2017-12-17T22:52:29.596Z,84.51
2017-12-17T22:54:59.030Z,84.51
2017-12-17T22:57:28.339Z,84.72
2017-12-17T22:59:59.456Z,84.71
2017-12-17T23:02:30.727Z,84.18
2017-12-17T23:05:00.196Z,84.24
2017-12-17T23:07:29.801Z,84.25
2017-12-17T23:10:01.162Z,84.54
2017-12-17T23:12:31.400Z,84.31
2017-12-17T23:15:07.836Z,83.63
2017-12-17T23:17:37.679Z,83.83
2017-12-17T23:20:07.999Z,84.10
2017-12-17T23:22:38.210Z,84.26
2017-12-17T23:25:08.065Z,83.94
2017-12-17T23:27:38.361Z,83.83
2017-12-17T23:30:08.174Z,83.75
2017-12-17T23:32:37.658Z,83.81
2017-12-17T23:35:09.293Z,84.70
2017-12-17T23:37:39.400Z,84.01
2017-12-17T23:40:09.474Z,84.13
2017-12-17T23:42:40.679Z,83.86
2017-12-17T23:45:09.705Z,84.12
2017-12-17T23:47:40.315Z,84.39
2017-12-17T23:50:12.588Z,84.33
2017-12-17T23:52:43.250Z,84.15
2017-12-17T23:55:13.082Z,84.54
2017-12-17T23:57:42.510Z,84.66
